Time;durP1;ratioP1;P1;durP2;ratioP2;P2;SDS_P1;SDS_P2;PMS_P1;PMS_P2;Temp;Humidity;BMP_temperature;BMP_pressure;BME280_temperature;BME280_humidity;BME280_pressure;Samples;Min_cycle;Max_cycle;Signal;HPM_P1;HPM_P2
2022/03/24 06:19:52;;;;;;;7.43;6.55;;;4.90;99.90;;;;;;6015376;22;20176;-69
2022/03/24 06:22:19;;;;;;;7.30;6.47;;;5.70;99.90;;;;;;5053518;28;20204;-70
2022/03/24 06:24:46;;;;;;;8.90;7.10;;;6.30;90.00;;;;;;5053546;28;20200;-71
2022/03/24 06:27:13;;;;;;;9.32;6.53;;;6.50;85.40;;;;;;5054484;28;20754;-71
2022/03/24 06:29:39;;;;;;;8.93;7.65;;;6.80;77.90;;;;;;5053552;28;20216;-70
2022/03/24 06:32:07;;;;;;;8.10;6.80;;;7.50;80.20;;;;;;5054185;28;20308;-71
2022/03/24 06:34:34;;;;;;;8.65;7.32;;;9.00;79.70;;;;;;5055151;28;20235;-71
2022/03/24 06:37:02;;;;;;;8.20;7.03;;;10.50;52.80;;;;;;5057070;28;20267;-70
2022/03/24 06:39:29;;;;;;;8.00;7.20;;;11.60;44.90;;;;;;5055857;28;20287;-71
2022/03/24 06:41:56;;;;;;;10.25;7.70;;;12.20;37.00;;;;;;5059435;28;20207;-70
2022/03/24 06:44:23;;;;;;;8.88;7.65;;;12.30;34.90;;;;;;5053446;28;20571;-72
2022/03/24 06:46:50;;;;;;;9.65;7.20;;;12.30;32.20;;;;;;5053613;28;20228;-71
2022/03/24 06:49:17;;;;;;;10.18;7.53;;;12.40;32.20;;;;;;5053709;28;20200;-71
2022/03/24 06:51:44;;;;;;;8.88;7.70;;;13.10;31.70;;;;;;5053153;28;20668;-70
2022/03/24 06:54:12;;;;;;;7.47;6.65;;;14.30;30.10;;;;;;5053129;28;20208;-70
2022/03/24 06:56:39;;;;;;;8.27;6.97;;;15.60;27.40;;;;;;5056518;28;20288;-71
2022/03/24 06:59:06;;;;;;;8.90;7.05;;;16.70;24.80;;;;;;5056933;28;20200;-71
2022/03/24 07:01:33;;;;;;;9.50;8.43;;;17.60;23.50;;;;;;5057365;28;20248;-70
2022/03/24 07:04:00;;;;;;;9.02;7.80;;;17.90;22.20;;;;;;5057013;28;20283;-70
2022/03/24 07:06:27;;;;;;;10.40;7.55;;;18.50;22.10;;;;;;5056588;28;20730;-72
2022/03/24 07:08:54;;;;;;;10.40;6.68;;;19.10;21.00;;;;;;5056978;28;20204;-72
2022/03/24 07:11:22;;;;;;;8.57;6.75;;;19.40;19.50;;;;;;5056494;28;20231;-72
2022/03/24 07:13:49;;;;;;;10.30;9.30;;;19.50;19.60;;;;;;5056796;28;20196;-72
2022/03/24 07:16:17;;;;;;;9.30;8.40;;;20.00;17.00;;;;;;5056753;28;20228;-72
2022/03/24 07:18:44;;;;;;;8.45;7.70;;;20.60;17.00;;;;;;5056789;28;20296;-72
2022/03/24 07:21:11;;;;;;;9.52;8.50;;;21.10;15.90;;;;;;5056389;28;20318;-72
2022/03/24 07:23:38;;;;;;;10.48;8.02;;;21.30;15.50;;;;;;5056305;28;20589;-72
2022/03/24 07:26:05;;;;;;;8.70;7.75;;;21.40;15.40;;;;;;5056203;28;20200;-72
2022/03/24 07:28:33;;;;;;;9.27;7.85;;;21.60;15.20;;;;;;5056484;28;20215;-72
2022/03/24 07:31:09;;;;;;;9.43;7.97;;;21.40;14.80;;;;;;5056613;28;20220;-72
2022/03/24 07:33:36;;;;;;;8.15;7.38;;;21.30;15.60;;;;;;5056228;28;20633;-72
2022/03/24 07:36:04;;;;;;;9.10;7.30;;;21.40;15.30;;;;;;5061258;28;20204;-72
2022/03/24 07:38:31;;;;;;;8.95;7.32;;;21.40;15.60;;;;;;5060655;28;20674;-73
2022/03/24 07:40:59;;;;;;;10.75;7.00;;;21.40;15.90;;;;;;5060917;28;20224;-74
2022/03/24 07:43:26;;;;;;;8.48;7.63;;;21.50;15.30;;;;;;5062029;28;20199;-73
2022/03/24 07:45:55;;;;;;;8.45;7.50;;;21.40;15.40;;;;;;5060162;28;20204;-72
2022/03/24 07:48:25;;;;;;;7.57;6.78;;;21.70;16.20;;;;;;5059174;28;20220;-73
2022/03/24 07:50:54;;;;;;;8.52;6.80;;;22.30;15.10;;;;;;5059311;28;20235;-72
2022/03/24 07:53:44;;;;;;;11.07;7.18;;;22.40;14.70;;;;;;5059422;28;20180;-72
2022/03/24 07:56:11;;;;;;;7.97;7.15;;;22.30;14.50;;;;;;5059438;28;20204;-73
2022/03/24 07:58:39;;;;;;;6.80;6.10;;;22.30;14.90;;;;;;5060531;28;20218;-73
2022/03/24 08:01:08;;;;;;;8.02;7.22;;;22.50;14.80;;;;;;5060632;28;20251;-72
2022/03/24 08:03:36;;;;;;;6.65;6.03;;;22.60;14.80;;;;;;5060939;28;20230;-73
2022/03/24 08:06:03;;;;;;;5.78;5.22;;;22.80;14.90;;;;;;5059157;28;20192;-72
2022/03/24 08:08:31;;;;;;;5.82;5.32;;;23.40;14.60;;;;;;5058097;28;20713;-72
2022/03/24 08:10:59;;;;;;;6.15;5.55;;;23.50;14.50;;;;;;5058961;28;20212;-73
2022/03/24 08:13:26;;;;;;;6.32;5.63;;;23.50;14.40;;;;;;5059766;28;20200;-73
2022/03/24 08:15:56;;;;;;;5.60;5.10;;;23.60;14.60;;;;;;5060479;28;20203;-73
2022/03/24 08:18:25;;;;;;;5.70;5.10;;;23.70;14.50;;;;;;5059940;28;20290;-74
2022/03/24 08:20:53;;;;;;;6.88;5.47;;;23.40;14.60;;;;;;5058288;28;20235;-72
2022/03/24 08:23:21;;;;;;;5.13;4.72;;;23.00;14.70;;;;;;5059440;28;20287;-72
2022/03/24 08:25:48;;;;;;;4.95;4.53;;;23.00;14.70;;;;;;5055164;28;20243;-72
2022/03/24 08:28:15;;;;;;;4.78;4.47;;;22.90;15.20;;;;;;5055094;28;20216;-72
2022/03/24 08:30:43;;;;;;;5.28;4.78;;;22.80;15.40;;;;;;5055442;28;20227;-72
2022/03/24 08:33:11;;;;;;;8.88;7.80;;;22.80;15.70;;;;;;5055239;28;20738;-71
2022/03/24 08:35:40;;;;;;;6.20;5.53;;;22.70;14.80;;;;;;5055430;28;20239;-72
2022/03/24 08:38:07;;;;;;;9.77;7.40;;;22.00;14.60;;;;;;5055416;28;20238;-73
2022/03/24 08:40:34;;;;;;;16.75;9.75;;;20.80;15.80;;;;;;5055049;28;20694;-72
2022/03/24 08:43:03;;;;;;;12.35;9.50;;;19.60;15.80;;;;;;5055336;28;20196;-70
2022/03/24 08:45:30;;;;;;;9.00;8.02;;;18.40;16.80;;;;;;5055258;28;20203;-70
2022/03/24 08:47:57;;;;;;;8.10;7.30;;;17.20;18.20;;;;;;5055098;28;20312;-72
2022/03/24 08:50:24;;;;;;;10.40;7.68;;;16.30;18.90;;;;;;5054991;28;20307;-70
2022/03/24 08:52:53;;;;;;;9.57;7.05;;;15.60;19.90;;;;;;5055180;28;20239;-71
2022/03/24 08:55:21;;;;;;;9.13;6.82;;;15.00;20.50;;;;;;5056256;28;20197;-72
2022/03/24 08:57:48;;;;;;;7.03;6.35;;;14.60;20.90;;;;;;5056344;28;20240;-72
2022/03/24 09:00:17;;;;;;;7.80;5.88;;;14.30;20.90;;;;;;5058071;28;20312;-71
2022/03/24 09:02:45;;;;;;;8.40;6.53;;;14.10;21.20;;;;;;5061047;28;20236;-70
2022/03/24 09:05:13;;;;;;;7.03;6.20;;;14.00;21.50;;;;;;5059350;28;20402;-71
2022/03/24 09:07:41;;;;;;;7.55;6.35;;;13.80;21.40;;;;;;5056418;28;20201;-72
2022/03/24 09:10:12;;;;;;;6.68;5.80;;;13.80;21.60;;;;;;5054723;28;20217;-72
2022/03/24 09:12:44;;;;;;;6.82;6.03;;;13.70;21.60;;;;;;5054728;28;20188;-73
2022/03/24 09:15:11;;;;;;;8.68;6.75;;;13.80;22.30;;;;;;5054775;28;20196;-72
2022/03/24 09:17:39;;;;;;;8.65;7.30;;;13.80;22.20;;;;;;5054636;28;20192;-72
2022/03/24 09:20:10;;;;;;;8.65;7.75;;;13.80;22.30;;;;;;5054682;28;20252;-72
2022/03/24 09:22:37;;;;;;;10.85;7.55;;;13.80;22.00;;;;;;5054475;28;20672;-71
2022/03/24 09:25:05;;;;;;;7.93;7.13;;;13.80;22.10;;;;;;5055603;28;20247;-71
2022/03/24 09:27:34;;;;;;;8.10;6.68;;;13.70;23.00;;;;;;5057431;28;20209;-71
2022/03/24 09:30:01;;;;;;;8.18;7.05;;;13.80;23.40;;;;;;5057709;28;20220;-71
2022/03/24 09:32:28;;;;;;;9.27;7.30;;;13.90;23.40;;;;;;5058591;28;20207;-71
2022/03/24 09:34:55;;;;;;;7.07;6.38;;;14.10;23.90;;;;;;5055289;28;20201;-71
2022/03/24 09:37:22;;;;;;;7.20;6.45;;;14.30;22.60;;;;;;5055762;28;20228;-71
2022/03/24 09:39:50;;;;;;;7.88;6.35;;;14.40;22.30;;;;;;5056295;28;20224;-71
2022/03/24 09:42:17;;;;;;;7.07;6.38;;;14.50;22.40;;;;;;5056364;28;20200;-71
2022/03/24 09:44:46;;;;;;;10.18;8.13;;;14.50;22.10;;;;;;5056012;28;20201;-72
2022/03/24 09:47:14;;;;;;;10.43;8.65;;;14.50;22.30;;;;;;5055724;28;20212;-71
2022/03/24 09:49:41;;;;;;;10.02;7.88;;;14.50;21.80;;;;;;5054450;28;20548;-72
2022/03/24 09:52:10;;;;;;;8.90;7.50;;;14.60;22.30;;;;;;5054270;28;20200;-72
2022/03/24 09:54:37;;;;;;;9.18;7.78;;;14.70;21.50;;;;;;5054098;28;20197;-72
2022/03/24 09:57:05;;;;;;;7.50;6.80;;;14.70;21.40;;;;;;5053975;28;20204;-72
2022/03/24 09:59:32;;;;;;;9.07;7.25;;;14.80;21.80;;;;;;5053815;28;20200;-71
2022/03/24 10:02:02;;;;;;;7.90;6.90;;;15.00;22.10;;;;;;5053959;28;20203;-72
2022/03/24 10:04:44;;;;;;;10.13;7.93;;;15.10;21.60;;;;;;5053769;28;20196;-72
2022/03/24 10:07:11;;;;;;;6.53;5.93;;;15.30;21.70;;;;;;5053895;28;20282;-72
2022/03/24 10:09:40;;;;;;;6.10;5.50;;;15.40;21.10;;;;;;5053789;28;20202;-72
2022/03/24 10:12:09;;;;;;;6.20;5.50;;;15.50;21.10;;;;;;5053400;28;20660;-73
2022/03/24 10:14:36;;;;;;;6.57;5.97;;;15.60;20.90;;;;;;5053584;28;20205;-73
2022/03/24 10:17:09;;;;;;;5.90;5.35;;;15.70;21.10;;;;;;5053598;28;20695;-72
2022/03/24 10:19:37;;;;;;;8.15;7.30;;;15.90;20.70;;;;;;5053806;28;20211;-72
2022/03/24 10:22:11;;;;;;;9.45;8.45;;;15.90;19.00;;;;;;5053433;28;20269;-72
2022/03/24 10:24:43;;;;;;;10.35;8.90;;;16.00;18.00;;;;;;5053758;28;20204;-72
2022/03/24 10:27:13;;;;;;;12.30;8.40;;;16.00;17.60;;;;;;5053469;28;20181;-72
2022/03/24 10:29:40;;;;;;;10.82;8.85;;;15.80;17.30;;;;;;5052831;28;20203;-72
2022/03/24 10:32:15;;;;;;;12.63;9.98;;;15.90;18.00;;;;;;5053468;28;20292;-72
2022/03/24 10:34:43;;;;;;;11.02;9.05;;;15.80;17.00;;;;;;5053498;28;20223;-73
2022/03/24 10:37:12;;;;;;;11.15;8.65;;;15.80;17.50;;;;;;5053565;28;20200;-73
2022/03/24 10:39:40;;;;;;;8.68;7.45;;;15.90;17.40;;;;;;5054764;28;20237;-72
2022/03/24 10:42:12;;;;;;;10.00;8.63;;;15.90;17.00;;;;;;5053858;28;20215;-73
2022/03/24 10:45:05;;;;;;;9.48;8.50;;;16.00;16.60;;;;;;5053388;28;20196;-73
2022/03/24 10:47:45;;;;;;;10.05;8.93;;;16.00;16.50;;;;;;5054222;28;20219;-73
2022/03/24 10:50:32;;;;;;;8.57;7.68;;;16.00;16.70;;;;;;5053328;28;20225;-73
2022/03/24 10:53:01;;;;;;;9.10;7.70;;;16.00;17.10;;;;;;5054333;28;20184;-74
2022/03/24 10:55:51;;;;;;;8.35;6.50;;;16.00;16.00;;;;;;5053211;28;20235;-74
2022/03/24 10:58:22;;;;;;;8.60;7.70;;;16.00;15.10;;;;;;5053028;28;20624;-73
2022/03/24 11:00:52;;;;;;;8.90;8.00;;;16.00;15.00;;;;;;5053960;28;20221;-74
2022/03/24 11:03:21;;;;;;;8.57;7.05;;;16.00;15.40;;;;;;5056143;28;20286;-74
2022/03/24 11:05:48;;;;;;;8.10;7.07;;;15.90;15.30;;;;;;5053009;28;20200;-73
2022/03/24 11:08:19;;;;;;;9.15;7.45;;;15.90;15.50;;;;;;5052882;28;20602;-73
2022/03/24 11:10:48;;;;;;;10.77;8.13;;;15.90;15.20;;;;;;5053082;28;20231;-74
2022/03/24 11:13:24;;;;;;;8.68;7.75;;;15.90;15.30;;;;;;5052999;28;20668;-74
2022/03/24 11:15:52;;;;;;;8.10;7.32;;;15.90;14.40;;;;;;5053148;28;20189;-72
2022/03/24 11:18:23;;;;;;;9.77;7.82;;;15.80;13.70;;;;;;5053077;28;20219;-73
2022/03/24 11:20:50;;;;;;;8.43;7.60;;;15.80;14.50;;;;;;5052670;28;20221;-73
2022/03/24 11:23:35;;;;;;;6.78;6.10;;;15.80;14.80;;;;;;5054648;28;20181;-73
2022/03/24 11:26:04;;;;;;;8.05;7.22;;;15.80;14.80;;;;;;5052985;28;20224;-73
2022/03/24 11:28:34;;;;;;;7.90;7.10;;;15.80;14.30;;;;;;5052967;28;20205;-71
2022/03/24 11:31:06;;;;;;;7.70;6.97;;;15.80;14.10;;;;;;5052781;28;20228;-71
2022/03/24 11:33:40;;;;;;;7.97;7.18;;;15.90;14.60;;;;;;5052800;28;20185;-71
2022/03/24 11:36:08;;;;;;;7.28;6.57;;;15.90;14.00;;;;;;5052708;28;20575;-71
2022/03/24 11:38:35;;;;;;;7.80;7.00;;;15.90;14.50;;;;;;5052489;28;20201;-68
2022/03/24 11:41:05;;;;;;;9.25;6.93;;;15.90;13.60;;;;;;5052613;28;20216;-68
2022/03/24 11:43:34;;;;;;;5.70;5.20;;;15.90;13.10;;;;;;5055417;28;20189;-70
2022/03/24 11:46:03;;;;;;;6.57;6.00;;;15.90;13.70;;;;;;5056155;28;20203;-69
2022/03/24 11:48:35;;;;;;;5.88;5.35;;;16.00;13.40;;;;;;5056201;28;20216;-70
2022/03/24 11:51:20;;;;;;;7.25;6.55;;;16.00;13.70;;;;;;5056056;28;20221;-70
2022/03/24 11:54:00;;;;;;;6.25;5.65;;;16.00;13.80;;;;;;5055887;28;20227;-69
2022/03/24 11:56:28;;;;;;;7.63;6.80;;;16.00;13.80;;;;;;5056145;28;20192;-73
2022/03/24 11:59:19;;;;;;;7.93;6.05;;;16.00;13.60;;;;;;5056558;28;20631;-70
2022/03/24 12:01:47;;;;;;;6.80;6.10;;;16.00;14.00;;;;;;5055933;28;20225;-70
2022/03/24 12:04:16;;;;;;;6.15;5.60;;;16.10;14.10;;;;;;5055857;28;20550;-71
2022/03/24 12:06:52;;;;;;;6.75;5.15;;;16.00;13.60;;;;;;5055969;28;20197;-70
2022/03/24 12:09:23;;;;;;;6.00;5.45;;;16.00;14.00;;;;;;5055478;28;20256;-70
2022/03/24 12:11:52;;;;;;;4.90;4.43;;;16.00;14.30;;;;;;5055440;28;20549;-71
2022/03/24 12:14:22;;;;;;;7.15;6.15;;;16.00;14.80;;;;;;5056209;28;20196;-71
2022/03/24 12:16:50;;;;;;;12.95;9.60;;;16.10;13.90;;;;;;5056596;28;20250;-72
2022/03/24 12:19:40;;;;;;;8.85;7.47;;;16.10;13.50;;;;;;5055729;28;20243;-70
2022/03/24 12:22:35;;;;;;;7.13;6.30;;;16.10;13.60;;;;;;5055506;28;20214;-70
2022/03/24 12:25:24;;;;;;;5.60;5.10;;;16.10;14.70;;;;;;5055800;28;20195;-70
2022/03/24 12:28:00;;;;;;;5.70;5.20;;;16.20;14.30;;;;;;5055171;28;20224;-70
2022/03/24 12:30:28;;;;;;;4.60;4.20;;;16.30;15.60;;;;;;5055322;28;20227;-69
2022/03/24 12:33:13;;;;;;;5.38;4.53;;;16.30;14.70;;;;;;5055340;28;20208;-69
2022/03/24 12:35:43;;;;;;;4.40;4.00;;;16.30;14.60;;;;;;5055613;28;20543;-69
2022/03/24 12:38:24;;;;;;;4.22;3.92;;;16.30;13.90;;;;;;5055455;28;20193;-69
2022/03/24 12:41:26;;;;;;;5.38;4.93;;;16.40;14.10;;;;;;5055107;28;20232;-70
2022/03/24 12:44:07;;;;;;;7.07;6.07;;;16.40;14.60;;;;;;5055181;28;20237;-70
2022/03/24 12:46:37;;;;;;;7.50;5.95;;;16.40;13.90;;;;;;5055176;28;20181;-71
2022/03/24 12:49:26;;;;;;;7.05;6.35;;;16.40;14.10;;;;;;5055161;28;20315;-71
2022/03/24 12:51:58;;;;;;;8.02;6.32;;;16.40;13.60;;;;;;5046571;28;20291;-71
2022/03/24 12:54:27;;;;;;;6.57;5.95;;;16.40;13.80;;;;;;5054619;28;20223;-71
2022/03/24 12:57:26;;;;;;;6.45;5.85;;;16.30;13.70;;;;;;5054867;28;20632;-70
2022/03/24 12:59:53;;;;;;;5.90;5.40;;;16.30;13.30;;;;;;5055545;28;20222;-74
2022/03/24 13:02:20;;;;;;;4.97;4.50;;;16.30;13.30;;;;;;5057574;28;20295;-75
2022/03/24 13:04:50;;;;;;;3.75;3.42;;;16.20;13.30;;;;;;5056974;28;20223;-75
2022/03/24 13:07:24;;;;;;;4.03;3.60;;;16.20;13.60;;;;;;5055414;28;20214;-75
2022/03/24 13:10:14;;;;;;;3.38;3.17;;;16.20;13.80;;;;;;5056154;28;20227;-74
2022/03/24 13:12:46;;;;;;;4.85;4.45;;;16.20;13.80;;;;;;5050750;28;20200;-74
2022/03/24 13:15:22;;;;;;;4.22;3.92;;;16.20;13.30;;;;;;5057360;28;20192;-75
2022/03/24 13:17:51;;;;;;;4.85;4.45;;;16.20;12.90;;;;;;5059372;28;20208;-75
2022/03/24 13:20:19;;;;;;;5.25;4.75;;;16.20;13.00;;;;;;5058589;28;20757;-74
2022/03/24 13:22:48;;;;;;;5.53;5.03;;;16.10;12.80;;;;;;5058940;28;20694;-76
2022/03/24 13:25:19;;;;;;;4.35;3.35;;;16.10;12.80;;;;;;5058426;28;20193;-74
2022/03/24 13:27:49;;;;;;;4.50;4.10;;;16.10;13.70;;;;;;5059841;28;20235;-76
2022/03/24 13:30:18;;;;;;;5.32;4.82;;;16.10;13.60;;;;;;5060267;28;20229;-76
2022/03/24 13:32:49;;;;;;;7.68;6.20;;;16.20;13.30;;;;;;5059615;28;20211;-75
2022/03/24 13:35:18;;;;;;;6.38;5.65;;;16.20;13.30;;;;;;5058579;28;20559;-75
2022/03/24 13:37:48;;;;;;;6.10;5.00;;;16.20;13.60;;;;;;5058522;28;20254;-75
2022/03/24 13:40:18;;;;;;;4.03;3.72;;;16.20;13.90;;;;;;5057178;28;20220;-70
2022/03/24 13:42:48;;;;;;;4.05;3.67;;;16.20;14.00;;;;;;5059813;28;20211;-72
2022/03/24 13:45:16;;;;;;;4.10;3.78;;;16.10;13.40;;;;;;5057737;28;20205;-75
2022/03/24 13:47:45;;;;;;;3.63;3.42;;;16.20;13.70;;;;;;5058408;28;20204;-75
2022/03/24 13:50:18;;;;;;;3.00;2.80;;;16.10;13.70;;;;;;5057398;28;20224;-75
2022/03/24 13:52:47;;;;;;;2.50;2.40;;;16.10;14.00;;;;;;5057665;28;20272;-76
2022/03/24 13:55:18;;;;;;;4.30;3.97;;;16.10;14.20;;;;;;5057795;28;20262;-75
2022/03/24 13:57:51;;;;;;;5.50;4.90;;;16.10;13.50;;;;;;5058372;28;20185;-75
2022/03/24 14:00:45;;;;;;;6.47;5.80;;;16.20;13.70;;;;;;5058296;28;20217;-76
2022/03/24 14:03:15;;;;;;;5.10;4.60;;;16.20;13.70;;;;;;5054122;28;20196;-75
2022/03/24 14:05:52;;;;;;;4.20;3.83;;;16.20;13.20;;;;;;5052118;28;20254;-76
2022/03/24 14:08:32;;;;;;;4.28;3.97;;;16.20;13.50;;;;;;5053983;28;20185;-75
2022/03/24 14:11:06;;;;;;;2.85;2.75;;;16.20;13.10;;;;;;5053735;28;20695;-75
2022/03/24 14:13:36;;;;;;;3.05;2.85;;;16.10;13.50;;;;;;5053791;28;20632;-74
2022/03/24 14:16:16;;;;;;;2.55;2.45;;;16.10;13.90;;;;;;5054541;28;20204;-75
2022/03/24 14:19:06;;;;;;;2.40;2.30;;;16.10;13.90;;;;;;5054508;28;20177;-75
2022/03/24 14:21:45;;;;;;;3.40;3.20;;;16.10;14.00;;;;;;5053802;28;20238;-71
2022/03/24 14:24:27;;;;;;;2.95;2.75;;;16.10;13.30;;;;;;5053720;28;20267;-71
2022/03/24 14:27:01;;;;;;;2.55;2.42;;;16.10;13.60;;;;;;5054339;28;20208;-71
2022/03/24 14:29:28;;;;;;;1.80;1.80;;;16.10;13.50;;;;;;5053661;28;20215;-71
2022/03/24 14:32:13;;;;;;;1.58;1.58;;;16.10;13.70;;;;;;5053654;28;20214;-71
2022/03/24 14:34:41;;;;;;;3.30;3.00;;;16.00;13.70;;;;;;5053389;28;20192;-71
2022/03/24 14:37:11;;;;;;;3.72;3.42;;;16.00;13.50;;;;;;5053575;28;20197;-71
2022/03/24 14:39:46;;;;;;;3.50;3.20;;;16.10;13.10;;;;;;5053811;28;20203;-70
2022/03/24 14:42:15;;;;;;;4.05;3.75;;;16.10;13.20;;;;;;5053930;28;20184;-70
2022/03/24 14:44:43;;;;;;;3.50;3.30;;;16.10;12.80;;;;;;5053773;28;20287;-71
2022/03/24 14:47:09;;;;;;;4.85;4.45;;;16.20;12.90;;;;;;5053343;28;20185;-71
2022/03/24 14:49:36;;;;;;;6.53;5.93;;;16.20;12.90;;;;;;5052938;28;20307;-71
2022/03/24 14:52:05;;;;;;;5.65;5.03;;;16.20;12.70;;;;;;5052960;28;20254;-71
2022/03/24 14:54:32;;;;;;;5.85;5.35;;;16.30;12.50;;;;;;5053445;28;20212;-72
2022/03/24 14:56:59;;;;;;;5.80;5.30;;;16.30;12.50;;;;;;5053262;28;20630;-72
2022/03/24 14:59:27;;;;;;;5.15;4.75;;;16.30;12.60;;;;;;5052709;28;20657;-71
2022/03/24 15:01:54;;;;;;;4.45;4.05;;;16.30;12.90;;;;;;5053099;28;20298;-71
2022/03/24 15:04:21;;;;;;;4.32;4.03;;;16.20;13.10;;;;;;5053180;28;20204;-71
2022/03/24 15:06:48;;;;;;;4.00;3.70;;;16.20;13.30;;;;;;5053081;28;20181;-71
2022/03/24 15:09:15;;;;;;;3.28;3.08;;;16.10;13.00;;;;;;5052916;28;20311;-71
2022/03/24 15:11:42;;;;;;;2.85;2.75;;;16.10;13.60;;;;;;5053003;28;20227;-70
2022/03/24 15:16:54;;;;;;;2.30;2.20;;;16.00;14.60;;;;;;5055050;28;20686;-71
2022/03/24 15:19:21;;;;;;;2.30;2.20;;;16.00;14.20;;;;;;5056723;28;20243;-70
2022/03/24 15:21:48;;;;;;;1.85;1.75;;;15.90;14.80;;;;;;5056518;28;20287;-69
2022/03/24 15:24:15;;;;;;;2.40;2.22;;;15.90;15.00;;;;;;5056373;28;20197;-69
2022/03/24 15:26:42;;;;;;;4.70;4.30;;;15.80;14.60;;;;;;5055544;28;20431;-70
2022/03/24 15:29:10;;;;;;;7.25;6.55;;;15.90;13.40;;;;;;5056235;28;20227;-70
2022/03/24 15:31:39;;;;;;;6.95;6.32;;;16.00;13.20;;;;;;5056570;28;20225;-70
2022/03/24 15:34:08;;;;;;;6.38;5.60;;;16.00;13.10;;;;;;5056663;28;20205;-71
2022/03/24 15:36:34;;;;;;;5.63;5.15;;;16.10;13.40;;;;;;5056716;28;20302;-70
2022/03/24 15:39:01;;;;;;;5.10;4.70;;;16.00;13.30;;;;;;5056428;28;20235;-70
2022/03/24 15:41:32;;;;;;;5.35;4.85;;;16.00;13.30;;;;;;5056422;28;20312;-70
2022/03/24 15:43:59;;;;;;;5.07;4.68;;;16.00;13.40;;;;;;5056751;28;20242;-70
2022/03/24 15:46:26;;;;;;;3.85;3.60;;;16.00;14.50;;;;;;5057379;28;20207;-71
2022/03/24 15:48:53;;;;;;;3.40;3.20;;;15.90;14.50;;;;;;5062318;28;20197;-71
2022/03/24 15:51:21;;;;;;;2.72;2.63;;;15.80;14.30;;;;;;5060385;28;20251;-69
2022/03/24 15:53:48;;;;;;;1.70;1.70;;;15.80;14.50;;;;;;5063676;28;20431;-69
2022/03/24 15:56:15;;;;;;;1.30;1.30;;;15.70;16.00;;;;;;5063693;28;20300;-69
2022/03/24 15:58:42;;;;;;;1.10;1.10;;;15.50;16.50;;;;;;5062008;28;20671;-69
2022/03/24 16:01:10;;;;;;;1.30;1.30;;;15.40;16.60;;;;;;5060154;28;20255;-69
2022/03/24 16:03:37;;;;;;;1.08;1.08;;;15.20;15.90;;;;;;5055876;28;20695;-69
2022/03/24 16:06:03;;;;;;;1.00;1.00;;;15.10;17.20;;;;;;5055858;28;20291;-69
2022/03/24 16:08:32;;;;;;;1.00;0.80;;;15.00;17.60;;;;;;5055226;28;20929;-69
2022/03/24 16:10:58;;;;;;;1.00;1.00;;;14.80;17.40;;;;;;5055747;28;20091;-69
2022/03/24 16:13:26;;;;;;;0.90;0.90;;;14.80;17.30;;;;;;5055327;28;20679;-69
2022/03/24 16:15:53;;;;;;;1.00;1.00;;;14.70;17.70;;;;;;5055652;28;20544;-69
2022/03/24 16:18:20;;;;;;;1.08;1.05;;;14.50;17.80;;;;;;5055291;28;20207;-69
2022/03/24 16:20:47;;;;;;;1.10;1.10;;;14.40;18.40;;;;;;5055032;28;20645;-70
2022/03/24 16:23:14;;;;;;;1.10;1.10;;;14.30;19.10;;;;;;5055719;28;20189;-70
2022/03/24 16:25:44;;;;;;;1.30;1.30;;;14.10;19.60;;;;;;5054709;28;20479;-69
2022/03/24 16:28:11;;;;;;;2.00;1.90;;;14.00;19.90;;;;;;5054708;28;20200;-69
2022/03/24 16:30:38;;;;;;;1.80;1.80;;;13.90;20.80;;;;;;5055083;28;20233;-68
2022/03/24 16:33:05;;;;;;;1.85;1.75;;;13.70;21.10;;;;;;5055023;28;20299;-68
2022/03/24 16:35:32;;;;;;;1.77;1.77;;;13.60;21.30;;;;;;5055113;28;20629;-68
2022/03/24 16:37:59;;;;;;;1.50;1.50;;;13.50;21.50;;;;;;5054735;28;20296;-68
2022/03/24 16:40:28;;;;;;;1.63;1.52;;;13.40;21.90;;;;;;5055083;28;20212;-68
2022/03/24 16:42:56;;;;;;;1.38;1.38;;;13.20;22.00;;;;;;5054716;28;20236;-68
2022/03/24 16:45:23;;;;;;;2.47;1.50;;;13.10;22.30;;;;;;5055059;28;20207;-68
2022/03/24 16:47:50;;;;;;;1.85;1.75;;;13.00;22.30;;;;;;5056211;28;20563;-68
2022/03/24 16:50:20;;;;;;;1.90;1.77;;;12.80;22.60;;;;;;5058782;28;20248;-68
2022/03/24 16:52:50;;;;;;;1.38;1.38;;;12.70;22.90;;;;;;5060318;28;20679;-69
2022/03/24 16:55:17;;;;;;;1.40;1.40;;;12.60;23.10;;;;;;5055817;28;20414;-68
2022/03/24 16:57:44;;;;;;;1.55;1.55;;;12.50;23.00;;;;;;5054950;28;20207;-68
2022/03/24 17:00:14;;;;;;;1.85;1.77;;;12.40;23.10;;;;;;5055167;28;20244;-68
2022/03/24 17:02:41;;;;;;;1.70;1.60;;;12.30;23.40;;;;;;5054997;28;20579;-68
2022/03/24 17:05:08;;;;;;;1.30;1.20;;;12.20;23.30;;;;;;5054642;28;20247;-69
2022/03/24 17:07:35;;;;;;;1.20;1.10;;;12.10;23.60;;;;;;5054919;28;20207;-67
2022/03/24 17:10:02;;;;;;;1.48;1.38;;;12.00;23.70;;;;;;5054530;28;20228;-67
2022/03/24 17:12:29;;;;;;;1.33;1.33;;;11.90;24.10;;;;;;5054571;28;20197;-68
2022/03/24 17:14:58;;;;;;;1.05;1.05;;;11.80;24.50;;;;;;5054581;28;20235;-68
2022/03/24 17:17:27;;;;;;;1.42;1.42;;;11.60;25.00;;;;;;5054560;28;20238;-68
2022/03/24 17:19:54;;;;;;;1.60;1.58;;;11.50;25.20;;;;;;5055437;28;20216;-68
2022/03/24 17:22:21;;;;;;;1.95;1.85;;;11.30;25.60;;;;;;5054302;28;20208;-68
2022/03/24 17:24:50;;;;;;;1.60;1.60;;;11.20;25.70;;;;;;5054082;28;20690;-69
2022/03/24 17:27:17;;;;;;;1.58;1.58;;;11.10;26.00;;;;;;5054337;28;20201;-69
2022/03/24 17:29:43;;;;;;;1.38;1.38;;;11.00;26.10;;;;;;5053908;28;20704;-70
2022/03/24 17:32:11;;;;;;;1.45;1.45;;;10.90;26.20;;;;;;5054375;28;20205;-69
2022/03/24 17:34:40;;;;;;;1.30;1.30;;;10.80;26.40;;;;;;5054224;28;20262;-69
2022/03/24 17:37:06;;;;;;;1.40;1.40;;;10.70;26.60;;;;;;5053913;28;20660;-70
2022/03/24 17:39:33;;;;;;;1.40;1.40;;;10.60;26.90;;;;;;5053739;28;20635;-70
2022/03/24 17:42:00;;;;;;;1.40;1.38;;;10.50;26.70;;;;;;5053714;28;20205;-70
2022/03/24 17:44:31;;;;;;;1.40;1.33;;;10.40;27.10;;;;;;5055270;28;20232;-70
2022/03/24 17:46:58;;;;;;;1.33;1.33;;;10.30;27.40;;;;;;5064295;28;20671;-70
2022/03/24 17:49:26;;;;;;;2.00;1.90;;;10.20;27.80;;;;;;5056344;28;20563;-71
2022/03/24 17:51:54;;;;;;;1.95;1.85;;;10.10;28.30;;;;;;5054017;28;20197;-72
2022/03/24 17:54:22;;;;;;;1.77;1.67;;;10.10;28.20;;;;;;5054025;28;20211;-72
2022/03/24 17:56:48;;;;;;;1.70;1.70;;;10.00;28.60;;;;;;5053761;28;20215;-72
2022/03/24 17:59:15;;;;;;;1.60;1.60;;;9.90;29.40;;;;;;5053849;28;20204;-72
2022/03/24 18:01:42;;;;;;;1.98;1.88;;;9.80;30.00;;;;;;5053757;28;20245;-71
2022/03/24 18:04:09;;;;;;;1.30;1.30;;;9.70;29.90;;;;;;5054443;28;20207;-71
2022/03/24 18:06:37;;;;;;;1.30;1.30;;;9.60;30.70;;;;;;5056316;28;20276;-71
2022/03/24 18:09:05;;;;;;;1.52;1.50;;;9.50;31.30;;;;;;5055542;28;20567;-72
2022/03/24 18:11:32;;;;;;;1.70;1.60;;;9.40;32.30;;;;;;5054793;28;20296;-72
2022/03/24 18:13:59;;;;;;;2.10;2.00;;;9.30;32.90;;;;;;5055185;28;20201;-72
2022/03/24 18:16:26;;;;;;;2.10;2.00;;;9.20;34.00;;;;;;5054871;28;20210;-71
2022/03/24 18:18:53;;;;;;;1.83;1.75;;;9.10;34.40;;;;;;5054975;28;20200;-71
2022/03/24 18:21:20;;;;;;;2.03;1.92;;;9.00;35.90;;;;;;5054938;28;20259;-71
2022/03/24 18:23:47;;;;;;;2.00;1.90;;;8.90;36.20;;;;;;5055047;28;20239;-72
2022/03/24 18:26:16;;;;;;;2.45;2.35;;;8.80;37.00;;;;;;5055400;28;20206;-72
2022/03/24 18:28:43;;;;;;;2.10;1.90;;;8.80;37.90;;;;;;5055693;28;20207;-72
2022/03/24 18:31:10;;;;;;;3.22;2.00;;;8.70;38.90;;;;;;5054797;28;20217;-71
2022/03/24 18:33:36;;;;;;;2.63;2.50;;;8.60;39.40;;;;;;5054948;28;20299;-71
2022/03/24 18:36:05;;;;;;;2.35;2.25;;;8.60;40.30;;;;;;5055634;28;20223;-71
2022/03/24 18:38:32;;;;;;;3.20;2.90;;;8.50;41.10;;;;;;5056079;28;20652;-71
2022/03/24 18:40:59;;;;;;;2.88;2.70;;;8.40;41.70;;;;;;5054537;28;20627;-71
2022/03/24 18:43:28;;;;;;;2.78;2.67;;;8.40;42.50;;;;;;5054970;28;20292;-71
2022/03/24 18:45:57;;;;;;;3.22;3.00;;;8.40;43.00;;;;;;5053666;28;20606;-71
2022/03/24 18:48:23;;;;;;;2.67;2.58;;;8.30;43.60;;;;;;5053491;28;20295;-73
2022/03/24 18:50:50;;;;;;;2.47;2.38;;;8.20;43.40;;;;;;5053676;28;20252;-71
2022/03/24 18:53:17;;;;;;;3.08;2.65;;;8.20;44.50;;;;;;5057742;28;20287;-71
2022/03/24 18:55:44;;;;;;;2.25;2.15;;;8.10;45.50;;;;;;5057064;28;20204;-71
2022/03/24 18:58:11;;;;;;;2.45;2.35;;;8.00;46.50;;;;;;5057218;28;20206;-71
2022/03/24 19:00:40;;;;;;;2.25;2.15;;;7.90;47.80;;;;;;5058204;28;20311;-72
2022/03/24 19:03:08;;;;;;;2.53;2.30;;;7.80;48.80;;;;;;5057329;28;20197;-71
2022/03/24 19:05:35;;;;;;;2.60;2.40;;;7.70;50.10;;;;;;5056851;28;20211;-71
2022/03/24 19:08:02;;;;;;;2.47;2.38;;;7.70;50.30;;;;;;5057023;28;20201;-72
2022/03/24 19:10:29;;;;;;;2.72;2.53;;;7.60;51.90;;;;;;5058271;28;20256;-71
2022/03/24 19:12:56;;;;;;;3.15;2.95;;;7.60;52.30;;;;;;5059952;28;20565;-71
2022/03/24 19:15:24;;;;;;;2.45;2.30;;;7.50;52.90;;;;;;5056842;28;20207;-72
2022/03/24 19:17:53;;;;;;;2.90;2.70;;;7.50;52.80;;;;;;5056806;28;20210;-73
2022/03/24 19:20:21;;;;;;;3.75;3.38;;;7.40;54.40;;;;;;5056757;28;20243;-73
2022/03/24 19:22:48;;;;;;;3.00;2.80;;;7.30;55.30;;;;;;5056798;28;20208;-72